Time;durP1;ratioP1;P1;durP2;ratioP2;P2;SDS_P1;SDS_P2;PMS_P1;PMS_P2;Temp;Humidity;BMP_temperature;BMP_pressure;BME280_temperature;BME280_humidity;BME280_pressure;Samples;Min_cycle;Max_cycle;Signal;HPM_P1;HPM_P2
2022/03/08 00:00:21;;;;;;;;;30.00;24.25;;;;;;;;5110887;27;29590;-87
2022/03/08 00:02:46;;;;;;;;;23.75;23.75;;;;;;;;5111001;27;28448;-87
2022/03/08 00:05:11;;;;;;;;;21.67;19.67;;;;;;;;5110905;27;28495;-86
2022/03/08 00:07:37;;;;;;;;;22.75;20.50;;;;;;;;5110590;27;28341;-86
2022/03/08 00:10:03;;;;;;;;;22.25;22.25;;;;;;;;5110281;27;29284;-86
2022/03/08 00:12:28;;;;;;;;;25.00;23.00;;;;;;;;5110503;27;28358;-86
2022/03/08 00:14:53;;;;;;;;;33.00;26.50;;;;;;;;5110958;27;28311;-86
2022/03/08 00:17:19;;;;;;;;;23.67;22.00;;;;;;;;5110735;27;28453;-86
2022/03/08 00:19:44;;;;;;;;;23.25;21.50;;;;;;;;5110605;27;28789;-86
2022/03/08 00:22:09;;;;;;;;;21.00;21.00;;;;;;;;5109826;27;28371;-86
2022/03/08 00:24:34;;;;;;;;;29.00;29.00;;;;;;;;5110663;27;28366;-86
2022/03/08 00:27:00;;;;;;;;;26.00;26.00;;;;;;;;5110766;27;28405;-85
2022/03/08 00:29:25;;;;;;;;;25.50;25.50;;;;;;;;5109939;27;28605;-86
2022/03/08 00:31:50;;;;;;;;;27.67;25.00;;;;;;;;5095115;27;28392;-85
2022/03/08 00:34:15;;;;;;;;;28.00;26.00;;;;;;;;5090048;28;27764;-87
2022/03/08 00:36:40;;;;;;;;;22.25;22.25;;;;;;;;5101148;27;28488;-87
2022/03/08 00:39:06;;;;;;;;;24.33;22.00;;;;;;;;5110511;27;29251;-87
2022/03/08 00:41:31;;;;;;;;;27.00;21.33;;;;;;;;5110338;27;28630;-87
2022/03/08 00:43:56;;;;;;;;;32.67;24.33;;;;;;;;5110229;27;28380;-87
2022/03/08 00:46:21;;;;;;;;;26.67;24.67;;;;;;;;5109394;27;28334;-87
2022/03/08 00:48:47;;;;;;;;;25.33;24.33;;;;;;;;5109897;27;28404;-87
2022/03/08 00:51:12;;;;;;;;;25.67;23.00;;;;;;;;5110303;27;28398;-87
2022/03/08 00:53:37;;;;;;;;;25.25;24.75;;;;;;;;5110045;27;28663;-87
2022/03/08 00:56:03;;;;;;;;;24.00;24.00;;;;;;;;5110324;27;28304;-87
2022/03/08 00:58:28;;;;;;;;;20.00;19.00;;;;;;;;5109353;27;28325;-87
2022/03/08 01:00:53;;;;;;;;;24.00;24.00;;;;;;;;5109233;27;28282;-87
2022/03/08 01:03:19;;;;;;;;;29.50;23.50;;;;;;;;5109649;27;28270;-87
2022/03/08 01:05:44;;;;;;;;;24.33;21.00;;;;;;;;5109986;27;28253;-86
2022/03/08 01:08:09;;;;;;;;;23.50;20.50;;;;;;;;5109826;27;29349;-86
2022/03/08 01:10:35;;;;;;;;;28.67;26.67;;;;;;;;5109903;27;28452;-87
2022/03/08 01:13:01;;;;;;;;;24.25;24.25;;;;;;;;5110001;27;28241;-87
2022/03/08 01:15:26;;;;;;;;;22.00;19.00;;;;;;;;5108477;27;28843;-86
2022/03/08 01:17:52;;;;;;;;;27.50;21.50;;;;;;;;5089101;28;29396;-87
2022/03/08 01:20:18;;;;;;;;;30.00;25.00;;;;;;;;5089670;27;28673;-86
2022/03/08 01:22:43;;;;;;;;;25.25;23.50;;;;;;;;5089202;28;28322;-87
2022/03/08 01:25:10;;;;;;;;;23.25;22.00;;;;;;;;5089366;27;28417;-87
2022/03/08 01:27:35;;;;;;;;;24.75;24.75;;;;;;;;5094462;27;28834;-87
2022/03/08 01:30:00;;;;;;;;;21.00;21.00;;;;;;;;5109602;27;28402;-87
2022/03/08 01:32:26;;;;;;;;;20.25;20.25;;;;;;;;5109883;27;28325;-90
2022/03/08 01:34:51;;;;;;;;;19.25;18.00;;;;;;;;5108912;27;28835;-89
2022/03/08 01:37:16;;;;;;;;;19.00;15.00;;;;;;;;5109521;27;28416;-90
2022/03/08 01:39:42;;;;;;;;;26.33;26.33;;;;;;;;5091511;27;28769;-90
2022/03/08 01:42:10;;;;;;;;;28.33;24.33;;;;;;;;5088291;27;28560;-90
2022/03/08 01:44:35;;;;;;;;;26.50;24.50;;;;;;;;5109430;27;28536;-90
2022/03/08 01:47:01;;;;;;;;;23.50;21.50;;;;;;;;5109451;27;28309;-91
2022/03/08 01:49:26;;;;;;;;;21.00;20.00;;;;;;;;5109378;27;28849;-89
2022/03/08 01:51:51;;;;;;;;;26.50;26.25;;;;;;;;5107850;27;28541;-87
2022/03/08 01:54:17;;;;;;;;;16.50;16.50;;;;;;;;5108201;27;28425;-87
2022/03/08 01:56:43;;;;;;;;;18.00;17.33;;;;;;;;5109077;27;28472;-87
2022/03/08 01:59:08;;;;;;;;;34.00;30.00;;;;;;;;5088688;27;28507;-87
2022/03/08 02:01:33;;;;;;;;;25.67;22.67;;;;;;;;5088908;27;28425;-87
2022/03/08 02:03:59;;;;;;;;;30.75;28.00;;;;;;;;5088546;28;28930;-87
2022/03/08 02:06:24;;;;;;;;;20.50;19.25;;;;;;;;5088685;28;28401;-88
2022/03/08 02:08:49;;;;;;;;;20.75;15.75;;;;;;;;5088664;28;28444;-87
2022/03/08 02:11:15;;;;;;;;;19.00;19.00;;;;;;;;5088642;28;28478;-87
2022/03/08 02:13:40;;;;;;;;;24.33;23.33;;;;;;;;5089462;27;28496;-86
2022/03/08 02:16:06;;;;;;;;;20.00;17.00;;;;;;;;5096125;27;28512;-87
2022/03/08 02:18:31;;;;;;;;;21.00;20.00;;;;;;;;5108961;27;28784;-87
2022/03/08 02:20:58;;;;;;;;;19.40;16.80;;;;;;;;5091432;27;28472;-86
2022/03/08 02:23:23;;;;;;;;;18.20;18.20;;;;;;;;5088417;28;28264;-87
2022/03/08 02:25:48;;;;;;;;;24.00;23.33;;;;;;;;5088423;28;29172;-86
2022/03/08 02:28:14;;;;;;;;;21.50;21.50;;;;;;;;5104574;27;28083;-87
2022/03/08 02:30:39;;;;;;;;;26.00;23.00;;;;;;;;5105001;27;28464;-86
2022/03/08 02:33:04;;;;;;;;;16.67;16.67;;;;;;;;5109032;27;28309;-87
2022/03/08 02:35:30;;;;;;;;;21.50;20.50;;;;;;;;5108538;27;29228;-86
2022/03/08 02:37:57;;;;;;;;;30.00;29.50;;;;;;;;5109085;27;28456;-87
2022/03/08 02:40:23;;;;;;;;;24.75;24.75;;;;;;;;5108762;27;28384;-87
2022/03/08 02:42:49;;;;;;;;;23.50;21.25;;;;;;;;5092136;27;28334;-86
2022/03/08 02:45:15;;;;;;;;;20.33;20.33;;;;;;;;5088306;28;28472;-86
2022/03/08 02:47:40;;;;;;;;;27.25;25.25;;;;;;;;5088101;28;28560;-88
2022/03/08 02:50:06;;;;;;;;;20.00;19.00;;;;;;;;5088509;28;28345;-89
2022/03/08 02:52:32;;;;;;;;;31.25;24.25;;;;;;;;5091680;27;28492;-88
2022/03/08 02:54:57;;;;;;;;;24.25;24.25;;;;;;;;5112098;27;29317;-88
2022/03/08 02:57:22;;;;;;;;;22.00;18.25;;;;;;;;5112243;27;28350;-87
2022/03/08 02:59:48;;;;;;;;;15.75;15.75;;;;;;;;5111596;27;28824;-88
2022/03/08 03:02:13;;;;;;;;;25.00;24.00;;;;;;;;5111396;27;28246;-88
2022/03/08 03:04:38;;;;;;;;;25.50;22.50;;;;;;;;5111558;27;29202;-89
2022/03/08 03:07:04;;;;;;;;;25.50;23.75;;;;;;;;5111274;27;28299;-88
2022/03/08 03:09:29;;;;;;;;;21.50;18.50;;;;;;;;5111826;27;28582;-88
2022/03/08 03:11:54;;;;;;;;;23.50;23.50;;;;;;;;5105372;27;28302;-88
2022/03/08 03:14:19;;;;;;;;;20.00;20.00;;;;;;;;5090816;27;28307;-87
2022/03/08 03:16:45;;;;;;;;;21.67;18.33;;;;;;;;5090799;28;28363;-89
2022/03/08 03:19:10;;;;;;;;;22.50;20.50;;;;;;;;5090821;28;27910;-87
2022/03/08 03:21:35;;;;;;;;;27.25;20.50;;;;;;;;5090738;27;28774;-87
2022/03/08 03:24:01;;;;;;;;;27.25;27.25;;;;;;;;5091165;28;28967;-88
2022/03/08 03:26:26;;;;;;;;;20.50;20.50;;;;;;;;5091123;28;28450;-87
2022/03/08 03:28:51;;;;;;;;;21.25;21.25;;;;;;;;5095261;27;28342;-87
2022/03/08 03:31:17;;;;;;;;;30.00;28.33;;;;;;;;5111377;27;28362;-88
2022/03/08 03:33:42;;;;;;;;;29.50;27.50;;;;;;;;5111213;27;29555;-88
2022/03/08 03:36:08;;;;;;;;;27.50;23.50;;;;;;;;5109809;27;29493;-87
2022/03/08 03:38:33;;;;;;;;;21.75;20.50;;;;;;;;5111482;27;28384;-86
2022/03/08 03:40:58;;;;;;;;;23.50;23.50;;;;;;;;5110761;27;28417;-87
2022/03/08 03:43:23;;;;;;;;;29.00;21.00;;;;;;;;5111027;27;28372;-87
2022/03/08 03:45:49;;;;;;;;;22.00;22.00;;;;;;;;5110818;27;28458;-87
2022/03/08 03:48:14;;;;;;;;;91.00;75.00;;;;;;;;5109660;27;28428;-87
2022/03/08 03:50:40;;;;;;;;;21.00;18.33;;;;;;;;5111332;27;28857;-87
2022/03/08 03:53:05;;;;;;;;;38.00;32.75;;;;;;;;5110751;27;28571;-88
2022/03/08 03:55:30;;;;;;;;;22.25;22.25;;;;;;;;5104938;27;28862;-87
2022/03/08 03:57:56;;;;;;;;;21.67;21.67;;;;;;;;5090497;28;28432;-88
2022/03/08 04:00:21;;;;;;;;;26.25;23.50;;;;;;;;5092511;27;28511;-87
2022/03/08 04:02:46;;;;;;;;;21.00;18.50;;;;;;;;5110814;27;29240;-88
2022/03/08 04:05:12;;;;;;;;;18.25;17.50;;;;;;;;5110191;27;28502;-88
2022/03/08 04:07:37;;;;;;;;;26.40;22.00;;;;;;;;5105745;27;28345;-88
2022/03/08 04:10:06;;;;;;;;;20.00;18.75;;;;;;;;5090404;27;28451;-88
2022/03/08 04:12:32;;;;;;;;;31.40;30.80;;;;;;;;5089990;28;31581;-87
2022/03/08 04:14:57;;;;;;;;;20.33;20.33;;;;;;;;5090116;28;28696;-89
2022/03/08 04:17:22;;;;;;;;;25.67;25.00;;;;;;;;5089589;28;28307;-88
2022/03/08 04:19:47;;;;;;;;;29.67;25.00;;;;;;;;5102962;27;28542;-89
2022/03/08 04:22:13;;;;;;;;;30.75;24.25;;;;;;;;5110311;27;28390;-88
2022/03/08 04:24:38;;;;;;;;;22.67;22.67;;;;;;;;5110396;27;28470;-88
2022/03/08 04:27:04;;;;;;;;;23.50;23.50;;;;;;;;5110649;27;28689;-88
2022/03/08 04:29:29;;;;;;;;;29.00;29.00;;;;;;;;5110401;27;28438;-88
2022/03/08 04:31:54;;;;;;;;;38.00;31.25;;;;;;;;5110271;27;29326;-88
2022/03/08 04:34:20;;;;;;;;;28.00;23.33;;;;;;;;5096835;27;28468;-88
2022/03/08 04:36:45;;;;;;;;;25.67;25.00;;;;;;;;5089855;28;28648;-87
2022/03/08 04:39:10;;;;;;;;;21.00;21.00;;;;;;;;5090069;28;28395;-87
2022/03/08 04:41:36;;;;;;;;;31.75;27.50;;;;;;;;5089560;28;28504;-87
2022/03/08 04:44:01;;;;;;;;;33.00;30.50;;;;;;;;5089575;27;28332;-88
2022/03/08 04:46:26;;;;;;;;;38.00;30.00;;;;;;;;5103290;27;28477;-87
2022/03/08 04:48:51;;;;;;;;;31.00;26.50;;;;;;;;5110088;27;28351;-87
2022/03/08 04:51:17;;;;;;;;;32.00;29.00;;;;;;;;5110085;27;28730;-87
2022/03/08 04:53:42;;;;;;;;;29.00;27.00;;;;;;;;5109721;27;28240;-87
2022/03/08 04:56:07;;;;;;;;;38.00;31.00;;;;;;;;5108613;27;28256;-88
2022/03/08 04:58:33;;;;;;;;;35.67;30.33;;;;;;;;5110077;27;28251;-87
2022/03/08 05:00:58;;;;;;;;;32.50;26.50;;;;;;;;5097059;27;29566;-86
2022/03/08 05:03:24;;;;;;;;;33.25;31.50;;;;;;;;5089581;28;28627;-87
2022/03/08 05:05:49;;;;;;;;;35.75;29.75;;;;;;;;5089154;28;28756;-86
2022/03/08 05:08:14;;;;;;;;;42.00;38.00;;;;;;;;5089473;28;28419;-86
2022/03/08 05:10:39;;;;;;;;;28.75;28.75;;;;;;;;5093133;27;29330;-87
2022/03/08 05:13:05;;;;;;;;;33.00;30.33;;;;;;;;5108218;27;28517;-89
2022/03/08 05:15:30;;;;;;;;;33.50;33.50;;;;;;;;5109107;27;28476;-89
2022/03/08 05:17:55;;;;;;;;;28.67;28.67;;;;;;;;5130490;27;27918;-89
2022/03/08 05:20:21;;;;;;;;;40.00;36.00;;;;;;;;5130540;27;29581;-89
2022/03/08 05:22:46;;;;;;;;;37.75;34.00;;;;;;;;5130238;27;28358;-86
2022/03/08 05:25:11;;;;;;;;;27.00;24.67;;;;;;;;5103758;27;28453;-90
2022/03/08 05:27:37;;;;;;;;;86.25;70.25;;;;;;;;5089090;28;28308;-90
2022/03/08 05:30:03;;;;;;;;;53.50;48.75;;;;;;;;5088790;28;28425;-87
2022/03/08 05:32:28;;;;;;;;;72.75;62.50;;;;;;;;5088783;28;28452;-86
2022/03/08 05:34:53;;;;;;;;;70.00;58.00;;;;;;;;5089108;27;28476;-88
2022/03/08 05:37:18;;;;;;;;;89.33;74.33;;;;;;;;5089330;28;28410;-88
2022/03/08 05:39:43;;;;;;;;;27.25;24.00;;;;;;;;5088679;28;28503;-88
2022/03/08 05:42:09;;;;;;;;;72.67;60.67;;;;;;;;5088819;28;28366;-86
2022/03/08 05:44:34;;;;;;;;;24.00;22.00;;;;;;;;5070731;28;28514;-86
2022/03/08 05:46:59;;;;;;;;;85.75;71.75;;;;;;;;5088883;28;28868;-88
2022/03/08 05:49:25;;;;;;;;;35.75;33.50;;;;;;;;5090499;27;28767;-86
2022/03/08 05:51:50;;;;;;;;;39.00;33.00;;;;;;;;5109005;27;29442;-86
2022/03/08 05:54:15;;;;;;;;;37.00;34.33;;;;;;;;5109196;27;28388;-86
2022/03/08 05:56:40;;;;;;;;;35.75;30.50;;;;;;;;5109555;27;28532;-86
2022/03/08 05:59:06;;;;;;;;;33.50;31.00;;;;;;;;5107571;27;28519;-87
2022/03/08 06:01:31;;;;;;;;;28.67;28.67;;;;;;;;5089088;28;28323;-88
2022/03/08 06:03:56;;;;;;;;;36.67;32.67;;;;;;;;5088424;28;28244;-88
2022/03/08 06:06:21;;;;;;;;;41.75;33.25;;;;;;;;5070354;28;28537;-88
2022/03/08 06:08:49;;;;;;;;;39.00;32.00;;;;;;;;5088466;28;29586;-86
2022/03/08 06:11:14;;;;;;;;;34.50;34.50;;;;;;;;5088474;28;28371;-87
2022/03/08 06:13:40;;;;;;;;;40.75;36.50;;;;;;;;5088221;27;28248;-86
2022/03/08 06:16:05;;;;;;;;;37.00;32.75;;;;;;;;5085246;27;28415;-86
2022/03/08 06:18:30;;;;;;;;;37.00;32.67;;;;;;;;5129513;27;28605;-85
2022/03/08 06:20:55;;;;;;;;;34.00;31.67;;;;;;;;5110022;27;28242;-86
2022/03/08 06:23:21;;;;;;;;;40.00;33.50;;;;;;;;5109032;27;28320;-85
2022/03/08 06:25:46;;;;;;;;;35.00;33.33;;;;;;;;5108728;27;28465;-87
2022/03/08 06:28:11;;;;;;;;;38.00;35.67;;;;;;;;5111227;27;28648;-87
2022/03/08 06:30:37;;;;;;;;;37.25;29.50;;;;;;;;5106587;27;28665;-86
2022/03/08 06:33:02;;;;;;;;;33.00;29.33;;;;;;;;5091786;28;28397;-85
2022/03/08 06:35:27;;;;;;;;;42.67;38.33;;;;;;;;5091639;28;28312;-86
2022/03/08 06:37:52;;;;;;;;;36.00;33.00;;;;;;;;5093387;27;28376;-85
2022/03/08 06:40:18;;;;;;;;;36.67;35.33;;;;;;;;5096648;27;28453;-85
2022/03/08 06:42:43;;;;;;;;;38.00;29.00;;;;;;;;5111993;27;28324;-86
2022/03/08 06:45:08;;;;;;;;;35.00;33.00;;;;;;;;5112435;27;28488;-85
2022/03/08 06:47:35;;;;;;;;;35.50;35.50;;;;;;;;5111802;27;28549;-84
2022/03/08 06:50:00;;;;;;;;;29.50;27.00;;;;;;;;5102060;27;28367;-84
2022/03/08 06:52:25;;;;;;;;;36.33;32.00;;;;;;;;5091384;28;28440;-85
2022/03/08 06:54:51;;;;;;;;;30.00;30.00;;;;;;;;5077769;27;28501;-86
2022/03/08 06:57:16;;;;;;;;;34.75;31.50;;;;;;;;5111852;27;28520;-86
2022/03/08 06:59:41;;;;;;;;;31.00;27.00;;;;;;;;5110935;27;28264;-85
2022/03/08 07:02:07;;;;;;;;;36.50;29.50;;;;;;;;5111746;27;28418;-85
2022/03/08 07:04:32;;;;;;;;;32.67;29.33;;;;;;;;5112220;27;28382;-86
2022/03/08 07:06:57;;;;;;;;;32.75;29.75;;;;;;;;5112179;27;29476;-86
2022/03/08 07:09:23;;;;;;;;;26.50;25.50;;;;;;;;5111503;27;28268;-86
2022/03/08 07:11:48;;;;;;;;;54.75;48.75;;;;;;;;5111613;27;28495;-86
2022/03/08 07:14:15;;;;;;;;;25.00;23.00;;;;;;;;5100961;27;28275;-86
2022/03/08 07:16:41;;;;;;;;;26.20;22.40;;;;;;;;5090633;28;28431;-86
2022/03/08 07:19:06;;;;;;;;;27.80;27.80;;;;;;;;5090928;28;28496;-86
2022/03/08 07:21:32;;;;;;;;;32.75;25.50;;;;;;;;5091188;28;29008;-86
2022/03/08 07:23:57;;;;;;;;;35.75;33.25;;;;;;;;5091050;27;28410;-87
2022/03/08 07:26:22;;;;;;;;;33.00;28.67;;;;;;;;5092961;27;29612;-87
2022/03/08 07:28:47;;;;;;;;;31.00;28.67;;;;;;;;5089926;28;28384;-87
2022/03/08 07:31:13;;;;;;;;;35.00;28.00;;;;;;;;5091098;27;28471;-87
2022/03/08 07:33:38;;;;;;;;;41.00;35.67;;;;;;;;5098195;27;28419;-87
2022/03/08 07:36:04;;;;;;;;;33.75;30.75;;;;;;;;5110962;27;29675;-89
2022/03/08 07:38:29;;;;;;;;;38.50;36.50;;;;;;;;5097038;27;28497;-87
2022/03/08 07:40:54;;;;;;;;;37.25;36.75;;;;;;;;5105307;27;28494;-90
2022/03/08 07:43:19;;;;;;;;;36.00;34.00;;;;;;;;5111195;27;28373;-85
2022/03/08 07:45:45;;;;;;;;;34.50;33.00;;;;;;;;5095084;27;29546;-85
2022/03/08 07:48:10;;;;;;;;;34.00;30.33;;;;;;;;5090223;28;28546;-86
2022/03/08 07:50:36;;;;;;;;;35.00;30.25;;;;;;;;5090390;28;28508;-86
2022/03/08 07:53:02;;;;;;;;;25.25;23.25;;;;;;;;5090620;27;27761;-85
2022/03/08 07:55:29;;;;;;;;;33.67;25.00;;;;;;;;5101447;27;28493;-85
2022/03/08 07:57:55;;;;;;;;;35.75;34.00;;;;;;;;5110652;27;28794;-85
2022/03/08 08:00:20;;;;;;;;;37.50;37.00;;;;;;;;5110620;27;28338;-85
2022/03/08 08:02:45;;;;;;;;;34.00;30.67;;;;;;;;5110892;27;28598;-88
2022/03/08 08:05:10;;;;;;;;;36.33;32.00;;;;;;;;5107023;27;28464;-85
2022/03/08 08:07:35;;;;;;;;;28.67;28.67;;;;;;;;5110939;27;28627;-86
2022/03/08 08:10:01;;;;;;;;;34.50;27.50;;;;;;;;5110509;27;28304;-84
2022/03/08 08:12:26;;;;;;;;;30.00;28.75;;;;;;;;5110767;27;28366;-84
2022/03/08 08:14:52;;;;;;;;;35.50;30.00;;;;;;;;5095253;27;29215;-84
2022/03/08 08:17:18;;;;;;;;;33.67;33.67;;;;;;;;5089618;28;28913;-82
2022/03/08 08:19:43;;;;;;;;;28.00;28.00;;;;;;;;5090117;27;28380;-83
2022/03/08 08:22:08;;;;;;;;;40.00;36.00;;;;;;;;5089934;28;29247;-85
2022/03/08 08:24:34;;;;;;;;;31.00;29.33;;;;;;;;5088395;27;29755;-83
2022/03/08 08:26:59;;;;;;;;;34.00;30.25;;;;;;;;5099342;27;28499;-83
2022/03/08 08:29:24;;;;;;;;;30.33;30.00;;;;;;;;5089732;28;28447;-82
2022/03/08 08:31:49;;;;;;;;;33.75;29.00;;;;;;;;5089898;27;28541;-82
2022/03/08 08:34:15;;;;;;;;;32.75;32.25;;;;;;;;5101902;27;28306;-83
2022/03/08 08:36:41;;;;;;;;;36.00;35.00;;;;;;;;5090900;27;28523;-83
2022/03/08 08:39:06;;;;;;;;;29.75;23.50;;;;;;;;5092409;27;28275;-83
2022/03/08 08:41:31;;;;;;;;;33.50;31.50;;;;;;;;5119941;27;28540;-82
2022/03/08 08:43:56;;;;;;;;;30.00;30.00;;;;;;;;5130702;27;28712;-85
2022/03/08 08:46:22;;;;;;;;;28.75;28.75;;;;;;;;5112446;27;28452;-85
2022/03/08 08:48:47;;;;;;;;;27.33;27.33;;;;;;;;5093153;27;28243;-87
2022/03/08 08:51:12;;;;;;;;;34.33;29.33;;;;;;;;5098708;27;28480;-87
2022/03/08 08:53:37;;;;;;;;;33.75;33.25;;;;;;;;5109492;27;29626;-83
2022/03/08 08:56:03;;;;;;;;;42.75;41.75;;;;;;;;5116317;27;28282;-85
2022/03/08 08:58:28;;;;;;;;;30.75;28.50;;;;;;;;5116311;27;28546;-86
2022/03/08 09:00:53;;;;;;;;;69.25;57.00;;;;;;;;5128374;27;28488;-84
2022/03/08 09:03:19;;;;;;;;;75.00;62.33;;;;;;;;5107650;27;29101;-83
2022/03/08 09:05:44;;;;;;;;;45.00;40.50;;;;;;;;5108262;27;28543;-83
2022/03/08 09:08:10;;;;;;;;;36.50;33.50;;;;;;;;5098978;27;28421;-83
2022/03/08 09:10:36;;;;;;;;;36.25;32.25;;;;;;;;5088111;27;28421;-84
2022/03/08 09:13:01;;;;;;;;;35.00;33.25;;;;;;;;5105134;27;29847;-83
2022/03/08 09:15:27;;;;;;;;;95.00;78.50;;;;;;;;5123650;27;28590;-85
2022/03/08 09:17:52;;;;;;;;;38.25;32.25;;;;;;;;5100869;27;27862;-84
2022/03/08 09:20:18;;;;;;;;;38.00;35.00;;;;;;;;5087602;27;28621;-83
2022/03/08 09:22:44;;;;;;;;;40.50;36.50;;;;;;;;5089961;27;28443;-83
2022/03/08 09:25:09;;;;;;;;;36.00;31.67;;;;;;;;5099027;27;28504;-83
2022/03/08 09:27:35;;;;;;;;;33.00;32.33;;;;;;;;5103255;27;28568;-84
2022/03/08 09:30:01;;;;;;;;;36.50;34.50;;;;;;;;5102684;27;28496;-83
2022/03/08 09:32:26;;;;;;;;;37.75;35.25;;;;;;;;5116421;27;29171;-83
2022/03/08 09:34:51;;;;;;;;;48.00;39.00;;;;;;;;5095370;27;28524;-83
2022/03/08 09:37:16;;;;;;;;;37.25;35.00;;;;;;;;5092884;27;28573;-84
2022/03/08 09:39:42;;;;;;;;;41.67;35.33;;;;;;;;5102206;27;28772;-84
2022/03/08 09:42:07;;;;;;;;;33.50;32.50;;;;;;;;5087459;27;29714;-83
2022/03/08 09:44:32;;;;;;;;;38.25;34.25;;;;;;;;5087842;27;28470;-85
2022/03/08 09:46:58;;;;;;;;;36.50;33.75;;;;;;;;5087685;27;28879;-84
2022/03/08 09:49:23;;;;;;;;;37.75;36.50;;;;;;;;5090770;27;28787;-83
2022/03/08 09:51:50;;;;;;;;;36.00;36.00;;;;;;;;5100899;27;28552;-85
2022/03/08 09:54:16;;;;;;;;;43.00;40.80;;;;;;;;5097990;27;28556;-85
2022/03/08 09:56:41;;;;;;;;;37.00;34.75;;;;;;;;5106462;27;28522;-85
2022/03/08 09:59:06;;;;;;;;;41.75;39.75;;;;;;;;5106878;27;28528;-83
2022/03/08 10:01:31;;;;;;;;;34.00;30.00;;;;;;;;5090124;27;28747;-82
2022/03/08 10:03:57;;;;;;;;;35.00;32.00;;;;;;;;5096142;27;28127;-82
2022/03/08 10:06:22;;;;;;;;;42.00;32.75;;;;;;;;5100282;27;28405;-81
2022/03/08 10:08:47;;;;;;;;;38.25;33.00;;;;;;;;5096472;27;28545;-81
2022/03/08 10:11:14;;;;;;;;;93.75;77.75;;;;;;;;5092573;27;29527;-82
2022/03/08 10:13:46;;;;;;;;;33.50;32.25;;;;;;;;5111394;27;28397;-83
2022/03/08 10:16:26;;;;;;;;;44.00;32.20;;;;;;;;5101296;27;28919;-83
2022/03/08 10:18:52;;;;;;;;;105.25;91.25;;;;;;;;5090654;27;28465;-83
2022/03/08 10:21:24;;;;;;;;;103.00;87.33;;;;;;;;5101111;27;28417;-83
2022/03/08 10:23:49;;;;;;;;;102.00;86.80;;;;;;;;5123666;27;28466;-85
2022/03/08 10:26:14;;;;;;;;;37.75;34.25;;;;;;;;5110792;27;28505;-85
2022/03/08 10:28:44;;;;;;;;;40.67;36.00;;;;;;;;5111300;27;28531;-85
2022/03/08 10:31:14;;;;;;;;;39.25;34.25;;;;;;;;5093795;27;29038;-84
2022/03/08 10:33:40;;;;;;;;;49.00;41.00;;;;;;;;5090112;27;28408;-86
2022/03/08 10:36:10;;;;;;;;;45.80;40.20;;;;;;;;5090757;27;28339;-82
2022/03/08 10:38:36;;;;;;;;;35.25;35.00;;;;;;;;5104133;27;28390;-83
2022/03/08 10:41:15;;;;;;;;;37.33;36.33;;;;;;;;5103301;27;28674;-82
2022/03/08 10:43:49;;;;;;;;;31.50;30.00;;;;;;;;5090163;27;28394;-84
2022/03/08 10:46:15;;;;;;;;;39.00;35.00;;;;;;;;5096933;27;28380;-83
2022/03/08 10:48:41;;;;;;;;;30.75;28.50;;;;;;;;5109970;27;28513;-82
2022/03/08 10:51:14;;;;;;;;;42.75;39.50;;;;;;;;5092978;27;28528;-83
2022/03/08 10:53:40;;;;;;;;;42.25;36.25;;;;;;;;5095854;27;28515;-84
2022/03/08 10:56:07;;;;;;;;;46.00;39.25;;;;;;;;5109003;27;28372;-84
2022/03/08 10:58:32;;;;;;;;;44.25;37.75;;;;;;;;5097913;27;28397;-87
2022/03/08 11:00:59;;;;;;;;;40.25;36.75;;;;;;;;5106724;27;28418;-87
2022/03/08 11:03:27;;;;;;;;;49.80;39.20;;;;;;;;5100968;27;28414;-84
2022/03/08 11:05:54;;;;;;;;;41.33;37.00;;;;;;;;5090281;27;28513;-86
2022/03/08 11:08:20;;;;;;;;;41.80;36.80;;;;;;;;5095551;27;28362;-84
2022/03/08 11:10:46;;;;;;;;;45.20;39.60;;;;;;;;5095378;27;28849;-84
2022/03/08 11:13:12;;;;;;;;;48.25;37.50;;;;;;;;5107539;27;28728;-84
2022/03/08 11:15:39;;;;;;;;;47.25;36.25;;;;;;;;5096690;27;28679;-84
2022/03/08 11:18:06;;;;;;;;;41.40;36.00;;;;;;;;5091918;27;28310;-84
2022/03/08 11:20:31;;;;;;;;;42.75;38.25;;;;;;;;5089821;27;28532;-87
2022/03/08 11:22:58;;;;;;;;;49.00;38.67;;;;;;;;5089953;27;28445;-83
2022/03/08 11:25:28;;;;;;;;;41.50;37.00;;;;;;;;5094724;27;28811;-89
2022/03/08 11:27:54;;;;;;;;;40.25;37.00;;;;;;;;5091928;27;28366;-84
2022/03/08 11:30:22;;;;;;;;;33.00;30.33;;;;;;;;5089704;27;28813;-84
2022/03/08 11:32:53;;;;;;;;;66.50;55.50;;;;;;;;5102106;27;28576;-84
2022/03/08 11:35:24;;;;;;;;;34.20;32.00;;;;;;;;5109091;27;28577;-84
2022/03/08 11:37:50;;;;;;;;;39.75;38.00;;;;;;;;5101338;27;28448;-84
2022/03/08 11:40:17;;;;;;;;;37.20;33.00;;;;;;;;5089464;27;29008;-83
2022/03/08 11:42:45;;;;;;;;;43.80;39.60;;;;;;;;5089391;27;28337;-84
2022/03/08 11:45:12;;;;;;;;;40.50;37.75;;;;;;;;5106490;27;28476;-84
2022/03/08 11:47:41;;;;;;;;;40.25;38.50;;;;;;;;5089529;27;28523;-83
2022/03/08 11:50:17;;;;;;;;;46.50;39.00;;;;;;;;5094628;27;29268;-83
2022/03/08 11:52:42;;;;;;;;;47.50;36.50;;;;;;;;5105201;27;28374;-83
2022/03/08 11:55:13;;;;;;;;;47.33;39.33;;;;;;;;5108614;27;28329;-84
2022/03/08 11:57:47;;;;;;;;;38.67;35.00;;;;;;;;5089215;27;28406;-84
2022/03/08 12:00:26;;;;;;;;;37.20;34.60;;;;;;;;5099327;27;28659;-83
2022/03/08 12:02:53;;;;;;;;;36.80;36.20;;;;;;;;5103870;27;27849;-83
2022/03/08 12:05:37;;;;;;;;;39.25;37.00;;;;;;;;5090179;27;28353;-83
2022/03/08 12:08:21;;;;;;;;;43.00;38.00;;;;;;;;5090635;27;28567;-83
2022/03/08 12:10:47;;;;;;;;;40.40;36.60;;;;;;;;5103884;27;28471;-83
2022/03/08 12:13:16;;;;;;;;;37.40;36.00;;;;;;;;5092644;27;28458;-83
2022/03/08 12:16:00;;;;;;;;;44.25;37.25;;;;;;;;5109296;27;28485;-83
2022/03/08 12:18:34;;;;;;;;;43.25;36.50;;;;;;;;5109019;27;28632;-83
2022/03/08 12:21:15;;;;;;;;;43.40;36.20;;;;;;;;5109140;27;29283;-83
2022/03/08 12:23:46;;;;;;;;;43.75;38.00;;;;;;;;5098999;27;28453;-83
2022/03/08 12:26:27;;;;;;;;;36.00;33.75;;;;;;;;5109178;27;28445;-83
2022/03/08 12:29:01;;;;;;;;;40.75;35.00;;;;;;;;5109466;27;27949;-83
2022/03/08 12:31:26;;;;;;;;;48.25;39.75;;;;;;;;5088672;27;28363;-83
2022/03/08 12:34:07;;;;;;;;;37.00;36.00;;;;;;;;5091083;27;28516;-84
2022/03/08 12:36:35;;;;;;;;;37.80;36.00;;;;;;;;5101769;27;28461;-84
2022/03/08 12:39:01;;;;;;;;;43.50;36.00;;;;;;;;5092033;27;28519;-83
2022/03/08 12:41:26;;;;;;;;;42.00;36.75;;;;;;;;5104807;27;28461;-84
2022/03/08 12:43:58;;;;;;;;;40.00;37.00;;;;;;;;5088551;27;28462;-84
2022/03/08 12:46:24;;;;;;;;;39.50;35.25;;;;;;;;5088619;27;28562;-84
2022/03/08 12:48:52;;;;;;;;;35.00;33.25;;;;;;;;5103611;27;28690;-84
2022/03/08 12:51:18;;;;;;;;;47.75;40.50;;;;;;;;5108910;27;29049;-84
2022/03/08 12:53:43;;;;;;;;;50.50;39.25;;;;;;;;5095782;27;28416;-84
2022/03/08 12:56:12;;;;;;;;;48.50;39.50;;;;;;;;5088621;27;28497;-84
2022/03/08 12:58:37;;;;;;;;;41.75;34.50;;;;;;;;5101755;27;28586;-84
2022/03/08 13:01:04;;;;;;;;;41.67;35.00;;;;;;;;5091990;27;28952;-84
2022/03/08 13:03:34;;;;;;;;;37.25;34.50;;;;;;;;5104675;27;29047;-84
2022/03/08 13:06:03;;;;;;;;;35.20;33.00;;;;;;;;5096467;27;28508;-84
2022/03/08 13:08:30;;;;;;;;;45.80;38.40;;;;;;;;5108603;27;28498;-82
2022/03/08 13:10:56;;;;;;;;;48.40;39.00;;;;;;;;5101278;27;28448;-83
2022/03/08 13:13:22;;;;;;;;;41.50;36.75;;;;;;;;5105400;27;28440;-82
2022/03/08 13:15:48;;;;;;;;;46.80;35.00;;;;;;;;5089525;27;28346;-83
2022/03/08 13:18:19;;;;;;;;;44.00;36.67;;;;;;;;5096017;27;28536;-82
2022/03/08 13:20:44;;;;;;;;;34.00;32.40;;;;;;;;5087519;27;28725;-83
2022/03/08 13:23:11;;;;;;;;;41.25;35.00;;;;;;;;5104246;27;28486;-82
2022/03/08 13:25:37;;;;;;;;;43.00;34.00;;;;;;;;5092955;27;28490;-83
2022/03/08 13:28:02;;;;;;;;;38.20;34.40;;;;;;;;5095799;27;28468;-83
2022/03/08 13:30:35;;;;;;;;;38.50;35.00;;;;;;;;5103046;27;28394;-83
2022/03/08 13:33:10;;;;;;;;;44.20;38.20;;;;;;;;5111693;27;29047;-83
2022/03/08 13:35:36;;;;;;;;;39.50;33.75;;;;;;;;5103179;27;28858;-83
2022/03/08 13:38:01;;;;;;;;;37.75;33.00;;;;;;;;5096667;27;28527;-83
2022/03/08 13:40:27;;;;;;;;;39.00;35.33;;;;;;;;5108256;27;29466;-85
2022/03/08 13:42:52;;;;;;;;;41.00;34.50;;;;;;;;5096612;27;28542;-83
2022/03/08 13:45:17;;;;;;;;;41.50;36.25;;;;;;;;5106981;27;28820;-84
2022/03/08 13:47:43;;;;;;;;;34.00;33.33;;;;;;;;5102090;27;28495;-83
2022/03/08 13:50:08;;;;;;;;;40.00;36.67;;;;;;;;5093754;27;28392;-83
2022/03/08 13:52:34;;;;;;;;;40.00;36.00;;;;;;;;5107975;27;28777;-83
2022/03/08 13:54:59;;;;;;;;;42.50;39.25;;;;;;;;5108055;27;28397;-83
2022/03/08 13:57:24;;;;;;;;;36.33;36.33;;;;;;;;5091135;27;28555;-83
2022/03/08 13:59:49;;;;;;;;;36.00;33.25;;;;;;;;5100640;27;28772;-83
2022/03/08 14:02:17;;;;;;;;;39.75;36.00;;;;;;;;5087515;27;28425;-83
2022/03/08 14:04:42;;;;;;;;;32.00;32.00;;;;;;;;5105212;27;28429;-83
2022/03/08 14:07:08;;;;;;;;;40.67;36.33;;;;;;;;5106937;27;28485;-83
2022/03/08 14:09:33;;;;;;;;;40.20;35.60;;;;;;;;5087182;27;29477;-82